.
WxDataArchive / Data Records for 2005-12-18
2005-12-17 December 2005 2005-12-19

Data Records for Sunday, 18 December 2005

Time	Temp	Chill	HIndex	Humid	Dewpt	 Wind 	HiWind	WindDir	Rain 	Barom 
-----	----	-----	------	-----	-----	------	------	-------	-----	----- 
00:00	11.1	11.1	11.1	86	7.7	0	0	---	0.00	30.522 
00:05	11.1	11.1	11.1	86	7.7	0	0	---	0.00	30.522 
00:10	11.1	11.1	11.1	86	7.7	0	0	---	0.00	30.522 
00:15	11.1	11.1	11.1	86	7.7	0	0	---	0.00	30.517 
00:20	11.2	11.2	11.2	86	7.8	0	0	---	0.00	30.517 
00:25	11.1	11.1	11.1	86	7.7	0	0	---	0.00	30.517 
00:30	10.9	10.9	10.9	85	7.3	0	0	---	0.00	30.517 
00:35	10.9	10.9	10.9	85	7.3	0	0	---	0.00	30.517 
00:40	10.9	10.9	10.9	86	7.6	0	0	---	0.00	30.517 
00:45	11.1	11.1	11.1	86	7.7	0	0	---	0.00	30.521 
00:50	11.1	11.1	11.1	86	7.7	0	0	---	0.00	30.521 
00:55	11.2	11.2	11.2	86	7.8	0	0	---	0.00	30.521 
01:00	11.2	11.2	11.2	86	7.8	0	0	---	0.00	30.519 
01:05	11.4	11.4	11.4	86	8.0	0	0	---	0.00	30.519 
01:10	11.4	11.4	11.4	86	8.0	0	0	---	0.00	30.519 
01:15	11.4	11.4	11.4	86	8.0	0	0	---	0.00	30.521 
01:20	11.6	11.6	11.6	86	8.2	0	0	---	0.00	30.521 
01:25	11.6	11.6	11.6	86	8.2	0	0	---	0.00	30.521 
01:30	11.7	11.7	11.7	87	8.6	0	0	---	0.00	30.522 
01:35	12.1	12.1	12.1	88	9.2	0	0	---	0.00	30.522 
01:40	12.6	12.6	12.6	88	9.7	0	0	---	0.00	30.522 
01:45	12.9	12.9	12.9	88	10.0	0	0	---	0.00	30.527 
01:50	13.3	13.3	13.3	88	10.4	0	1	248	0.00	30.527 
01:55	13.5	13.5	13.5	88	10.6	0	0	---	0.00	30.527 
02:00	13.5	13.5	13.5	87	10.4	0	0	---	0.00	30.525 
02:05	13.5	13.5	13.5	87	10.4	0	0	---	0.00	30.525 
02:10	13.6	13.6	13.6	87	10.5	0	0	---	0.00	30.525 
02:15	13.8	13.8	13.8	87	10.7	0	1	248	0.00	30.526 
02:20	14.1	14.1	14.1	87	11.0	0	1	248	0.00	30.526 
02:25	14.4	14.4	14.4	87	11.3	0	1	248	0.00	30.526 
02:30	14.6	14.6	14.6	87	11.4	0	1	248	0.00	30.528 
02:35	14.9	14.9	14.9	86	11.5	0	2	248	0.00	30.528 
02:40	14.8	14.8	14.8	85	11.1	0	0	---	0.00	30.528 
02:45	14.6	14.6	14.6	84	10.7	0	0	---	0.00	30.527 
02:50	14.3	14.3	14.3	84	10.4	0	0	---	0.00	30.527 
02:55	14.0	14.0	14.0	84	10.1	0	0	---	0.00	30.527 
03:00	13.6	13.6	13.6	84	9.7	0	0	---	0.00	30.540 
03:05	13.3	13.3	13.3	84	9.4	0	1	248	0.00	30.540 
03:10	12.9	12.9	12.9	84	9.0	0	0	---	0.00	30.540 
03:15	12.8	12.8	12.8	84	8.9	0	0	---	0.00	30.545 
03:20	12.6	12.6	12.6	84	8.7	0	0	---	0.00	30.545 
03:25	12.4	12.4	12.4	84	8.5	0	0	---	0.00	30.545 
03:30	12.1	12.1	12.1	84	8.2	0	0	---	0.00	30.546 
03:35	11.9	11.9	11.9	85	8.3	0	0	---	0.00	30.546 
03:40	11.9	11.9	11.9	85	8.3	0	0	---	0.00	30.546 
03:45	11.9	11.9	11.9	85	8.3	0	0	---	0.00	30.541 
03:50	11.9	11.9	11.9	85	8.3	0	0	---	0.00	30.541 
03:55	11.9	11.9	11.9	85	8.3	0	0	---	0.00	30.541 
04:00	11.7	11.7	11.7	85	8.1	0	0	---	0.00	30.545 
04:05	11.7	11.7	11.7	85	8.1	0	0	---	0.00	30.545 
04:10	11.6	11.6	11.6	85	8.0	0	0	---	0.00	30.545 
04:15	11.6	11.6	11.6	85	8.0	0	0	---	0.00	30.548 
04:20	11.6	11.6	11.6	85	8.0	0	0	---	0.00	30.548 
04:25	11.6	11.6	11.6	85	8.0	0	0	---	0.00	30.548 
04:30	11.6	11.6	11.6	85	8.0	0	0	---	0.00	30.546 
04:35	11.7	11.7	11.7	86	8.3	0	0	---	0.00	30.546 
04:40	11.7	11.7	11.7	86	8.3	0	0	---	0.00	30.546 
04:45	12.1	12.1	12.1	86	8.7	0	1	248	0.00	30.546 
04:50	12.6	12.6	12.6	87	9.5	0	1	248	0.00	30.546 
04:55	12.9	12.9	12.9	88	10.0	0	2	248	0.00	30.546 
05:00	13.5	13.5	13.5	87	10.4	0	2	248	0.00	30.545 
05:05	13.6	13.6	13.6	87	10.5	0	1	248	0.00	30.545 
05:10	13.8	13.8	13.8	86	10.4	0	1	248	0.00	30.545 
05:15	13.8	13.8	13.8	86	10.4	0	2	248	0.00	30.548 
05:20	14.0	14.0	14.0	86	10.6	1	2	248	0.00	30.548 
05:25	14.0	14.0	14.0	85	10.3	0	1	248	0.00	30.548 
05:30	14.0	14.0	14.0	85	10.3	0	3	248	0.00	30.548 
05:35	14.0	14.0	14.0	85	10.3	1	3	248	0.00	30.548 
05:40	14.0	14.0	14.0	85	10.3	1	3	225	0.00	30.548 
05:45	14.1	14.1	14.1	84	10.2	1	2	225	0.00	30.548 
05:50	14.1	14.1	14.1	84	10.2	0	2	248	0.00	30.548 
05:55	14.1	14.1	14.1	84	10.2	1	2	248	0.00	30.548 
06:00	14.1	14.1	14.1	84	10.2	0	3	248	0.00	30.549 
06:05	14.1	14.1	14.1	84	10.2	0	2	248	0.00	30.549 
06:10	14.0	14.0	14.0	84	10.1	0	2	248	0.00	30.549 
06:15	14.0	14.0	14.0	83	9.8	0	2	248	0.00	30.556 
06:20	14.0	14.0	14.0	84	10.1	1	3	248	0.00	30.556 
06:25	14.0	14.0	14.0	84	10.1	1	2	248	0.00	30.556 
06:30	14.0	14.0	14.0	83	9.8	1	2	248	0.00	30.556 
06:35	14.0	14.0	14.0	83	9.8	1	2	248	0.00	30.556 
06:40	14.0	14.0	14.0	83	9.8	1	2	248	0.00	30.556 
06:45	14.0	14.0	14.0	83	9.8	1	2	248	0.00	30.563 
06:50	14.0	14.0	14.0	83	9.8	1	3	248	0.00	30.563 
06:55	14.0	14.0	14.0	83	9.8	1	3	248	0.00	30.563 
07:00	14.0	14.0	14.0	83	9.8	1	3	248	0.00	30.563 
07:05	14.0	14.0	14.0	82	9.5	1	2	248	0.00	30.563 
07:10	14.0	14.0	14.0	82	9.5	1	3	248	0.00	30.563 
07:15	13.8	13.8	13.8	82	9.3	1	2	248	0.00	30.565 
07:20	13.8	13.8	13.8	82	9.3	1	2	248	0.00	30.565 
07:25	13.8	13.8	13.8	82	9.3	1	3	248	0.00	30.565 
07:30	13.8	13.8	13.8	82	9.3	1	3	248	0.00	30.568 
07:35	13.8	13.8	13.8	82	9.3	0	2	248	0.00	30.568 
07:40	13.8	13.8	13.8	82	9.3	1	3	248	0.00	30.568 
07:45	13.8	13.8	13.8	81	9.1	0	2	248	0.00	30.564 
07:50	13.8	13.8	13.8	81	9.1	1	2	248	0.00	30.564 
07:55	13.6	13.6	13.6	81	8.9	1	3	248	0.00	30.564 
08:00	13.6	13.6	13.6	81	8.9	1	2	248	0.00	30.566 
08:05	13.5	13.5	13.5	81	8.8	1	2	248	0.00	30.566 
08:10	13.5	13.5	13.5	81	8.8	1	3	248	0.00	30.566 
08:15	13.5	13.5	13.5	81	8.8	1	3	248	0.00	30.570 
08:20	13.5	13.5	13.5	81	8.8	0	3	248	0.00	30.570 
08:25	13.3	13.3	13.3	81	8.6	0	1	248	0.00	30.570 
08:30	13.3	13.3	13.3	81	8.6	0	1	248	0.00	30.570 
08:35	13.3	13.3	13.3	81	8.6	0	1	248	0.00	30.570 
08:40	13.5	13.5	13.5	81	8.8	0	2	248	0.00	30.570 
08:45	13.5	13.5	13.5	81	8.8	0	2	248	0.00	30.580 
08:50	13.8	13.8	13.8	81	9.1	1	2	248	0.00	30.580 
08:55	14.0	14.0	14.0	80	9.0	1	2	248	0.00	30.580 
09:00	14.1	14.1	14.1	78	8.5	1	3	248	0.00	30.584 
09:05	14.3	14.3	14.3	77	8.4	2	6	248	0.00	30.584 
09:10	14.3	14.3	14.3	77	8.4	1	4	248	0.00	30.584 
09:15	14.3	14.3	14.3	76	8.1	1	3	248	0.00	30.587 
09:20	14.3	14.3	14.3	76	8.1	1	2	248	0.00	30.587 
09:25	14.6	14.6	14.6	77	8.7	1	3	248	0.00	30.587 
09:30	14.8	14.8	14.8	75	8.3	1	5	248	0.00	30.584 
09:35	14.9	14.9	14.9	73	7.8	2	4	248	0.00	30.584 
09:40	14.9	14.9	14.9	75	8.4	1	2	270	0.00	30.584 
09:45	15.2	15.2	15.2	74	8.4	1	3	248	0.00	30.584 
09:50	15.6	15.6	15.6	73	8.5	2	4	248	0.00	30.584 
09:55	15.9	15.9	15.9	73	8.8	1	3	248	0.00	30.584 
10:00	16.1	16.1	16.1	72	8.7	2	4	248	0.00	30.583 
10:05	16.2	16.2	16.2	73	9.1	1	2	248	0.00	30.583 
10:10	16.2	16.2	16.2	72	8.8	1	5	248	0.00	30.583 
10:15	16.5	16.5	16.5	72	9.1	1	3	248	0.00	30.586 
10:20	16.9	16.9	16.9	71	9.2	1	2	248	0.00	30.586 
10:25	17.0	17.0	17.0	71	9.2	1	3	270	0.00	30.586 
10:30	17.3	17.3	17.3	71	9.5	1	2	248	0.00	30.585 
10:35	17.8	17.8	17.8	70	9.7	1	3	225	0.00	30.585 
10:40	18.0	18.0	18.0	70	9.9	1	3	248	0.00	30.585 
10:45	18.3	18.3	18.3	70	10.2	1	2	248	0.00	30.582 
10:50	18.4	18.4	18.4	69	10.0	1	2	270	0.00	30.582 
10:55	18.6	18.6	18.6	69	10.2	1	2	270	0.00	30.582 
11:00	18.6	18.6	18.6	69	10.2	2	3	270	0.00	30.573 
11:05	18.8	18.8	18.8	69	10.3	2	4	270	0.00	30.573 
11:10	18.9	18.9	18.9	70	10.8	1	3	248	0.00	30.573 
11:15	19.1	19.1	19.1	70	11.0	1	4	248	0.00	30.568 
11:20	19.4	19.4	19.4	70	11.2	2	5	248	0.00	30.568 
11:25	19.4	19.4	19.4	71	11.6	2	5	270	0.00	30.568 
11:30	19.5	19.5	19.5	72	12.0	1	4	248	0.00	30.567 
11:35	19.5	19.5	19.5	72	12.0	2	6	270	0.00	30.567 
11:40	19.9	19.9	19.9	72	12.4	2	4	248	0.00	30.567 
11:45	20.3	20.3	20.3	71	12.4	2	5	248	0.00	30.565 
11:50	20.3	20.3	20.3	70	12.1	2	4	248	0.00	30.565 
11:55	20.3	20.3	20.3	71	12.4	1	3	248	0.00	30.565 
12:00	20.3	20.3	20.3	71	12.4	2	5	248	0.00	30.557 
12:05	20.3	20.3	20.3	71	12.4	2	5	248	0.00	30.557 
12:10	20.2	20.2	20.2	71	12.3	2	5	248	0.00	30.557 
12:15	20.3	20.3	20.3	72	12.7	2	4	248	0.00	30.553 
12:20	20.0	20.0	20.0	73	12.8	3	5	248	0.00	30.553 
12:25	20.2	20.2	20.2	73	13.0	1	4	248	0.00	30.553 
12:30	20.3	20.3	20.3	73	13.1	1	3	248	0.00	30.546 
12:35	20.3	20.3	20.3	73	13.1	2	5	248	0.00	30.546 
12:40	20.3	20.3	20.3	73	13.1	1	6	248	0.00	30.546 
12:45	20.5	20.5	20.5	71	12.6	2	6	292	0.00	30.534 
12:50	20.6	20.6	20.6	71	12.7	2	6	248	0.00	30.534 
12:55	20.6	20.6	20.6	72	13.0	3	7	248	0.00	30.534 
13:00	21.0	21.0	21.0	71	13.1	2	4	248	0.00	30.523 
13:05	21.0	21.0	21.0	70	12.8	2	5	248	0.00	30.523 
13:10	21.1	21.1	21.1	70	12.9	2	5	248	0.00	30.523 
13:15	21.0	21.0	21.0	71	13.1	3	7	248	0.00	30.516 
13:20	21.1	21.1	21.1	70	12.9	2	5	248	0.00	30.516 
13:25	21.3	21.3	21.3	69	12.7	1	4	248	0.00	30.516 
13:30	21.1	21.1	21.1	69	12.5	2	5	270	0.00	30.515 
13:35	21.1	21.1	21.1	69	12.5	2	9	248	0.00	30.515 
13:40	21.1	21.1	21.1	69	12.5	2	5	248	0.00	30.515 
13:45	21.1	21.1	21.1	69	12.5	2	4	248	0.00	30.508 
13:50	20.8	20.8	20.8	69	12.3	3	6	248	0.00	30.508 
13:55	21.0	21.0	21.0	69	12.5	2	6	248	0.00	30.508 
14:00	21.0	21.0	21.0	69	12.5	3	9	248	0.00	30.511 
14:05	21.0	21.0	21.0	68	12.1	2	10	248	0.00	30.511 
14:10	21.0	21.0	21.0	69	12.5	2	4	248	0.00	30.511 
14:15	21.0	21.0	21.0	68	12.1	3	7	270	0.00	30.501 
14:20	21.0	21.0	21.0	68	12.1	3	6	248	0.00	30.501 
14:25	21.0	15.4	21.0	68	12.1	4	7	248	0.00	30.501 
14:30	21.0	21.0	21.0	68	12.1	3	8	248	0.00	30.500 
14:35	20.8	20.8	20.8	69	12.3	3	9	248	0.00	30.500 
14:40	20.8	20.8	20.8	69	12.3	2	5	248	0.00	30.500 
14:45	21.0	21.0	21.0	66	11.5	3	7	248	0.00	30.507 
14:50	20.8	20.8	20.8	68	11.9	2	5	270	0.00	30.507 
14:55	20.6	20.6	20.6	68	11.7	2	3	270	0.00	30.507 
15:00	20.5	20.5	20.5	68	11.6	2	7	248	0.00	30.504 
15:05	20.2	20.2	20.2	68	11.4	2	5	248	0.00	30.504 
15:10	20.2	20.2	20.2	69	11.7	2	7	270	0.00	30.504 
15:15	20.3	20.3	20.3	69	11.8	2	4	270	0.00	30.505 
15:20	20.5	20.5	20.5	68	11.6	1	3	248	0.00	30.505 
15:25	20.5	20.5	20.5	68	11.6	2	6	270	0.00	30.505 
15:30	20.6	20.6	20.6	68	11.7	2	5	248	0.00	30.507 
15:35	20.5	20.5	20.5	67	11.3	3	7	248	0.00	30.507 
15:40	20.5	20.5	20.5	67	11.3	3	7	248	0.00	30.507 
15:45	20.5	14.8	20.5	67	11.3	4	9	248	0.00	30.507 
15:50	20.2	14.4	20.2	67	11.0	4	10	248	0.00	30.507 
15:55	20.0	20.0	20.0	69	11.5	3	7	248	0.00	30.507 
16:00	20.0	20.0	20.0	68	11.2	2	6	248	0.00	30.506 
16:05	19.9	19.9	19.9	67	10.7	2	5	248	0.00	30.506 
16:10	19.9	19.9	19.9	68	11.1	2	7	248	0.00	30.506 
16:15	19.9	19.9	19.9	66	10.4	2	5	248	0.00	30.504 
16:20	19.7	19.7	19.7	65	9.9	2	6	248	0.00	30.504 
16:25	19.5	19.5	19.5	65	9.7	2	5	270	0.00	30.504 
16:30	19.4	19.4	19.4	65	9.6	2	5	270	0.00	30.511 
16:35	19.2	19.2	19.2	65	9.4	2	5	270	0.00	30.511 
16:40	19.1	19.1	19.1	65	9.3	3	6	270	0.00	30.511 
16:45	18.9	18.9	18.9	65	9.1	2	4	270	0.00	30.510 
16:50	18.8	18.8	18.8	65	9.0	2	9	248	0.00	30.510 
16:55	18.6	18.6	18.6	65	8.8	1	4	270	0.00	30.510 
17:00	18.4	18.4	18.4	66	9.0	1	4	248	0.00	30.513 
17:05	18.1	18.1	18.1	66	8.7	1	3	248	0.00	30.513 
17:10	18.0	18.0	18.0	67	8.9	2	5	248	0.00	30.513 
17:15	17.8	17.8	17.8	67	8.7	2	7	248	0.00	30.516 
17:20	17.7	17.7	17.7	68	9.0	1	3	248	0.00	30.516 
17:25	17.5	17.5	17.5	68	8.8	2	5	248	0.00	30.516 
17:30	17.3	17.3	17.3	69	8.9	1	5	248	0.00	30.518 
17:35	17.3	17.3	17.3	68	8.6	2	4	248	0.00	30.518 
17:40	17.3	17.3	17.3	68	8.6	2	7	248	0.00	30.518 
17:45	17.2	17.2	17.2	68	8.5	2	6	248	0.00	30.519 
17:50	17.2	17.2	17.2	69	8.8	1	4	248	0.00	30.519 
17:55	17.2	17.2	17.2	69	8.8	2	4	248	0.00	30.519 
18:00	17.2	17.2	17.2	69	8.8	2	5	248	0.00	30.520 
18:05	17.0	17.0	17.0	68	8.3	2	6	248	0.00	30.520 
18:10	16.9	16.9	16.9	68	8.2	2	6	248	0.00	30.520 
18:15	16.9	16.9	16.9	69	8.5	1	3	248	0.00	30.520 
18:20	16.7	16.7	16.7	69	8.3	2	4	248	0.00	30.520 
18:25	16.7	16.7	16.7	68	8.0	3	7	248	0.00	30.520 
18:30	16.5	16.5	16.5	68	7.8	2	4	248	0.00	30.520 
18:35	16.5	16.5	16.5	69	8.1	2	7	248	0.00	30.520 
18:40	16.4	16.4	16.4	68	7.7	2	4	248	0.00	30.520 
18:45	16.2	16.2	16.2	69	7.8	2	10	270	0.00	30.520 
18:50	16.1	16.1	16.1	69	7.8	1	5	270	0.00	30.520 
18:55	15.9	15.9	15.9	69	7.6	1	7	248	0.00	30.520 
19:00	15.9	15.9	15.9	69	7.6	2	7	270	0.00	30.520 
19:05	15.7	15.7	15.7	69	7.4	2	7	248	0.00	30.520 
19:10	15.6	15.6	15.6	69	7.3	1	5	248	0.00	30.520 
19:15	15.4	15.4	15.4	70	7.4	2	5	248	0.00	30.520 
19:20	15.4	15.4	15.4	70	7.4	1	5	248	0.00	30.520 
19:25	15.2	15.2	15.2	70	7.2	1	5	248	0.00	30.520 
19:30	15.1	15.1	15.1	70	7.1	2	7	248	0.00	30.522 
19:35	15.1	15.1	15.1	70	7.1	1	5	248	0.00	30.522 
19:40	14.8	14.8	14.8	70	6.8	1	4	248	0.00	30.522 
19:45	14.8	14.8	14.8	70	6.8	1	4	248	0.00	30.521 
19:50	14.6	14.6	14.6	70	6.6	1	5	248	0.00	30.521 
19:55	14.4	14.4	14.4	70	6.4	2	5	248	0.00	30.521 
20:00	14.3	14.3	14.3	70	6.3	2	9	248	0.00	30.520 
20:05	14.3	14.3	14.3	69	6.0	1	3	270	0.00	30.520 
20:10	14.1	14.1	14.1	69	5.8	1	5	248	0.00	30.520 
20:15	14.0	14.0	14.0	69	5.7	2	5	248	0.00	30.519 
20:20	13.8	13.8	13.8	69	5.5	2	4	248	0.00	30.519 
20:25	13.8	13.8	13.8	69	5.5	2	6	248	0.00	30.519 
20:30	13.6	13.6	13.6	69	5.4	1	5	248	0.00	30.520 
20:35	13.5	13.5	13.5	69	5.3	1	4	248	0.00	30.520 
20:40	13.5	13.5	13.5	69	5.3	1	4	270	0.00	30.520 
20:45	13.3	13.3	13.3	69	5.1	1	4	248	0.00	30.519 
20:50	13.1	13.1	13.1	68	4.6	2	4	248	0.00	30.519 
20:55	13.1	13.1	13.1	68	4.6	1	3	248	0.00	30.519 
21:00	12.9	12.9	12.9	68	4.4	1	4	270	0.00	30.516 
21:05	12.8	12.8	12.8	68	4.3	1	5	270	0.00	30.516 
21:10	12.8	12.8	12.8	68	4.3	2	5	248	0.00	30.516 
21:15	12.6	12.6	12.6	68	4.1	1	4	248	0.00	30.509 
21:20	12.6	12.6	12.6	68	4.1	2	7	248	0.00	30.509 
21:25	12.6	12.6	12.6	68	4.1	2	7	248	0.00	30.509 
21:30	12.4	12.4	12.4	69	4.2	2	5	248	0.00	30.510 
21:35	12.3	12.3	12.3	69	4.1	1	2	270	0.00	30.510 
21:40	12.1	12.1	12.1	69	3.9	1	5	270	0.00	30.510 
21:45	11.9	11.9	11.9	70	4.0	1	4	248	0.00	30.514 
21:50	11.7	11.7	11.7	70	3.8	2	6	248	0.00	30.514 
21:55	11.7	11.7	11.7	70	3.8	2	5	248	0.00	30.514 
22:00	11.6	11.6	11.6	70	3.7	2	5	248	0.00	30.514 
22:05	11.6	11.6	11.6	70	3.7	2	5	248	0.00	30.514 
22:10	11.4	11.4	11.4	70	3.5	2	9	270	0.00	30.514 
22:15	11.4	11.4	11.4	70	3.5	2	4	248	0.00	30.510 
22:20	11.2	11.2	11.2	70	3.4	2	6	248	0.00	30.510 
22:25	11.2	11.2	11.2	70	3.4	2	7	248	0.00	30.510 
22:30	11.1	11.1	11.1	70	3.3	1	4	248	0.00	30.506 
22:35	10.9	10.9	10.9	71	3.4	2	6	248	0.00	30.506 
22:40	10.9	10.9	10.9	71	3.4	2	5	248	0.00	30.506 
22:45	10.7	10.7	10.7	71	3.2	1	3	248	0.00	30.506 
22:50	10.5	10.5	10.5	71	3.0	2	9	248	0.00	30.506 
22:55	10.4	10.4	10.4	71	2.9	2	5	248	0.00	30.506 
23:00	10.4	10.4	10.4	71	2.9	2	4	248	0.00	30.510 
23:05	10.2	10.2	10.2	72	3.0	1	4	248	0.00	30.510 
23:10	10.0	10.0	10.0	72	2.8	2	4	248	0.00	30.510 
23:15	10.0	10.0	10.0	72	2.8	1	4	248	0.00	30.504 
23:20	9.9	9.9	9.9	72	2.7	1	4	248	0.00	30.504 
23:25	9.7	9.7	9.7	73	2.8	2	7	248	0.00	30.504 
23:30	9.7	9.7	9.7	73	2.8	1	6	248	0.00	30.499 
23:35	9.5	9.5	9.5	73	2.6	1	5	248	0.00	30.499 
23:40	9.5	9.5	9.5	73	2.6	1	4	248	0.00	30.499 
23:45	9.3	9.3	9.3	73	2.4	1	5	248	0.00	30.491 
23:50	9.2	9.2	9.2	73	2.3	1	6	248	0.00	30.491 
23:55	9.2	9.2	9.2	73	2.3	1	5	248	0.00	30.491 

CoCoRaHS
IN-AL-39
A2 Web Hosting
Creative Commons License
GoDaddy
Look for:

loaded 2017-10-17 18:18:13 • last modified 2010-11-18 10:43:29
Privacy PolicyDisclaimer
• wx.awcolley.com is powered by PmWiki v.2002016 •
• all content (unless otherwise noted) © 2017 A W Colley